Time;durP1;ratioP1;P1;durP2;ratioP2;P2;SDS_P1;SDS_P2;PMS_P1;PMS_P2;Temp;Humidity;BMP_temperature;BMP_pressure;BME280_temperature;BME280_humidity;BME280_pressure;Samples;Min_cycle;Max_cycle;Signal;HPM_P1;HPM_P2
2022/03/31 00:00:49;;;;;;;6.22;2.10;;;3.30;99.90;;;;;;4958084;28;20035;-77
2022/03/31 00:03:20;;;;;;;6.65;2.00;;;3.40;99.90;;;;;;4973090;28;20046;-77
2022/03/31 00:05:48;;;;;;;6.68;1.77;;;3.40;99.90;;;;;;4957732;28;20046;-77
2022/03/31 00:08:16;;;;;;;6.55;1.70;;;3.40;99.90;;;;;;4973623;28;20437;-77
2022/03/31 00:10:52;;;;;;;6.35;2.10;;;3.30;99.90;;;;;;4973637;28;20041;-77
2022/03/31 00:13:23;;;;;;;5.28;1.73;;;3.20;99.90;;;;;;4973305;28;20101;-77
2022/03/31 00:15:49;;;;;;;5.05;1.48;;;3.20;99.90;;;;;;4973946;28;20473;-77
2022/03/31 00:18:16;;;;;;;6.68;1.85;;;3.20;99.90;;;;;;4972755;28;20069;-77
2022/03/31 00:20:42;;;;;;;7.70;1.77;;;3.20;99.90;;;;;;4957706;28;20557;-77
2022/03/31 00:23:08;;;;;;;7.43;1.60;;;3.20;99.90;;;;;;4957203;28;20134;-77
2022/03/31 00:25:34;;;;;;;7.43;1.88;;;3.20;99.90;;;;;;4973401;28;20050;-77
2022/03/31 00:28:03;;;;;;;6.43;1.63;;;3.20;99.90;;;;;;4957018;28;20035;-77
2022/03/31 00:30:29;;;;;;;5.40;1.70;;;3.10;99.90;;;;;;4957314;28;20466;-77
2022/03/31 00:32:55;;;;;;;6.63;1.80;;;3.10;99.90;;;;;;4972109;28;20125;-77
2022/03/31 00:35:21;;;;;;;7.25;1.80;;;3.10;99.90;;;;;;4957341;28;20038;-77
2022/03/31 00:37:47;;;;;;;5.57;1.48;;;3.20;99.90;;;;;;4972919;28;20142;-77
2022/03/31 00:40:17;;;;;;;9.13;2.20;;;3.30;99.90;;;;;;4978717;28;20125;-77
2022/03/31 00:42:45;;;;;;;7.22;1.80;;;3.30;99.90;;;;;;4976383;28;20053;-77
2022/03/31 00:45:28;;;;;;;6.97;1.70;;;3.10;99.90;;;;;;4991875;28;20042;-77
2022/03/31 00:47:56;;;;;;;6.28;1.80;;;3.20;99.90;;;;;;4991525;28;20209;-77
2022/03/31 00:50:28;;;;;;;6.00;1.75;;;3.20;99.90;;;;;;4992505;28;20046;-77
2022/03/31 00:52:54;;;;;;;7.22;2.05;;;3.40;99.90;;;;;;4977187;28;20472;-77
2022/03/31 00:55:21;;;;;;;6.32;2.20;;;3.50;99.90;;;;;;4960399;28;20042;-77
2022/03/31 00:57:48;;;;;;;7.93;2.50;;;3.20;99.90;;;;;;4992364;28;20482;-77
2022/03/31 01:00:15;;;;;;;10.20;2.70;;;3.10;99.90;;;;;;4976456;28;20034;-77
2022/03/31 01:02:43;;;;;;;8.57;2.88;;;3.10;99.90;;;;;;4975248;28;20049;-77
2022/03/31 01:05:11;;;;;;;7.35;2.95;;;3.10;99.90;;;;;;4992287;28;20073;-77
2022/03/31 01:07:37;;;;;;;7.65;3.05;;;2.90;99.90;;;;;;4976015;28;20046;-77
2022/03/31 01:10:05;;;;;;;7.18;2.95;;;3.00;99.90;;;;;;4976117;28;20042;-77
2022/03/31 01:12:31;;;;;;;9.15;3.50;;;2.80;99.90;;;;;;4977316;28;20057;-77
2022/03/31 01:15:20;;;;;;;8.48;3.53;;;2.90;99.90;;;;;;4972879;28;20051;-77
2022/03/31 01:17:48;;;;;;;12.43;4.22;;;2.80;99.90;;;;;;4955443;28;20051;-77
2022/03/31 01:20:21;;;;;;;8.27;3.75;;;2.80;99.90;;;;;;4972887;28;20046;-77
2022/03/31 01:22:47;;;;;;;8.57;3.58;;;2.80;99.90;;;;;;4956771;28;20039;-77
2022/03/31 01:25:13;;;;;;;10.55;4.40;;;2.80;99.90;;;;;;4957182;28;20133;-77
2022/03/31 01:27:41;;;;;;;8.50;4.10;;;3.20;99.90;;;;;;4972530;28;20089;-77
2022/03/31 01:30:09;;;;;;;10.25;4.40;;;2.80;99.90;;;;;;4972671;28;20457;-77
2022/03/31 01:32:35;;;;;;;10.40;4.60;;;2.80;99.90;;;;;;4971894;28;20491;-77
2022/03/31 01:35:03;;;;;;;10.50;5.28;;;2.80;99.90;;;;;;4956623;28;20049;-77
2022/03/31 01:37:29;;;;;;;9.60;4.30;;;2.80;99.90;;;;;;4972280;28;20222;-77
2022/03/31 01:39:55;;;;;;;10.70;4.80;;;2.80;99.90;;;;;;4972928;28;20494;-77
2022/03/31 01:42:22;;;;;;;13.88;6.95;;;3.00;99.90;;;;;;4988869;28;20425;-77
2022/03/31 01:44:51;;;;;;;13.57;6.40;;;2.70;99.90;;;;;;4972646;28;20126;-77
2022/03/31 01:47:17;;;;;;;12.52;6.80;;;2.80;99.90;;;;;;4955978;28;20082;-77
2022/03/31 01:49:43;;;;;;;10.95;6.90;;;2.80;99.90;;;;;;4956647;28;20078;-77
2022/03/31 01:52:09;;;;;;;11.65;7.32;;;2.80;99.90;;;;;;4972335;28;20050;-77
2022/03/31 01:54:35;;;;;;;13.95;7.15;;;2.80;99.90;;;;;;4972676;28;20126;-77
2022/03/31 01:57:01;;;;;;;11.57;7.03;;;2.80;99.90;;;;;;4975905;28;20043;-77
2022/03/31 01:59:37;;;;;;;11.90;6.72;;;2.80;99.90;;;;;;4960097;28;20426;-77
2022/03/31 02:02:04;;;;;;;12.50;6.75;;;2.90;99.90;;;;;;4959316;28;20039;-77
2022/03/31 02:04:30;;;;;;;10.00;6.28;;;2.80;99.90;;;;;;4975477;28;20039;-77
2022/03/31 02:06:56;;;;;;;11.15;5.90;;;2.80;99.90;;;;;;4976117;28;20038;-77
2022/03/31 02:09:22;;;;;;;8.65;5.60;;;2.90;99.90;;;;;;4943832;28;20053;-77
2022/03/31 02:11:47;;;;;;;11.43;6.28;;;2.90;99.90;;;;;;4959657;28;20049;-77
2022/03/31 02:14:14;;;;;;;10.90;5.70;;;2.80;99.90;;;;;;4959407;28;20078;-77
2022/03/31 02:16:39;;;;;;;10.63;6.30;;;2.80;99.90;;;;;;4975802;28;20046;-77
2022/03/31 02:19:05;;;;;;;11.30;6.68;;;2.90;99.90;;;;;;4958697;28;20042;-77
2022/03/31 02:21:31;;;;;;;11.23;6.45;;;2.70;99.90;;;;;;4959552;28;20031;-77
2022/03/31 02:23:56;;;;;;;9.77;6.13;;;2.70;99.90;;;;;;4959324;28;20042;-77
2022/03/31 02:26:22;;;;;;;10.05;5.97;;;2.70;99.90;;;;;;4975659;28;20046;-77
2022/03/31 02:28:48;;;;;;;13.32;6.30;;;2.70;99.90;;;;;;4975493;28;20133;-77
2022/03/31 02:31:14;;;;;;;11.02;6.90;;;2.70;99.90;;;;;;4959302;28;20047;-77
2022/03/31 02:33:39;;;;;;;11.63;7.00;;;2.60;99.90;;;;;;4958350;28;20046;-77
2022/03/31 02:36:07;;;;;;;13.65;7.35;;;2.60;99.90;;;;;;4975520;28;20039;-77
2022/03/31 02:38:34;;;;;;;11.55;7.13;;;2.60;99.90;;;;;;4975460;28;20398;-77
2022/03/31 02:41:01;;;;;;;11.98;7.70;;;2.60;99.90;;;;;;4959532;28;20503;-77
2022/03/31 02:43:27;;;;;;;14.15;8.00;;;2.60;99.90;;;;;;4975261;28;20402;-77
2022/03/31 02:45:53;;;;;;;13.70;8.32;;;2.60;99.90;;;;;;4975198;28;20124;-77
2022/03/31 02:48:18;;;;;;;15.27;9.77;;;2.60;99.90;;;;;;4974235;28;20133;-77
2022/03/31 02:50:44;;;;;;;15.27;10.45;;;2.50;99.90;;;;;;4975397;28;20498;-77
2022/03/31 02:55:55;;;;;;;15.20;10.40;;;2.50;99.90;;;;;;4961736;28;20502;-77
2022/03/31 02:58:21;;;;;;;13.07;9.38;;;2.70;99.90;;;;;;4959092;28;20406;-77
2022/03/31 03:00:48;;;;;;;14.70;10.25;;;2.50;99.90;;;;;;4959088;28;20053;-77
2022/03/31 03:03:14;;;;;;;13.25;9.40;;;2.50;99.90;;;;;;4958273;28;20043;-77
2022/03/31 03:05:45;;;;;;;15.68;9.93;;;2.60;99.90;;;;;;4958843;28;20442;-77
2022/03/31 03:08:12;;;;;;;13.15;9.43;;;2.60;99.90;;;;;;4957853;28;20482;-77
2022/03/31 03:10:38;;;;;;;11.70;8.75;;;2.60;99.90;;;;;;4974756;28;20105;-77
2022/03/31 03:13:04;;;;;;;15.60;9.85;;;2.60;99.90;;;;;;4974561;28;20387;-77
2022/03/31 03:15:30;;;;;;;12.73;9.68;;;2.60;99.90;;;;;;4974720;28;20038;-77
2022/03/31 03:17:57;;;;;;;14.30;10.35;;;2.60;99.90;;;;;;4957544;28;20041;-77
2022/03/31 03:20:24;;;;;;;13.65;10.43;;;2.60;99.90;;;;;;4959009;28;20081;-77
2022/03/31 03:22:51;;;;;;;13.32;10.32;;;2.60;99.90;;;;;;4958344;28;20461;-77
2022/03/31 03:25:19;;;;;;;14.13;10.73;;;2.60;99.90;;;;;;4974768;28;20383;-77
2022/03/31 03:27:46;;;;;;;18.25;11.63;;;2.60;99.90;;;;;;4958570;28;20159;-77
2022/03/31 03:30:13;;;;;;;20.23;13.50;;;2.60;99.90;;;;;;4958255;28;20046;-77
2022/03/31 03:32:39;;;;;;;14.73;11.30;;;2.60;99.90;;;;;;4941423;28;20053;-77
2022/03/31 03:35:08;;;;;;;14.25;11.43;;;2.60;99.90;;;;;;4974271;28;20043;-77
2022/03/31 03:37:35;;;;;;;19.05;15.10;;;2.60;99.90;;;;;;4973819;28;20059;-77
2022/03/31 03:40:04;;;;;;;19.00;12.07;;;2.60;99.90;;;;;;4958169;28;20074;-77
2022/03/31 03:42:31;;;;;;;17.75;13.65;;;2.90;99.90;;;;;;4973981;28;20165;-77
2022/03/31 03:44:57;;;;;;;15.32;11.90;;;2.60;99.90;;;;;;4958152;28;20104;-77
2022/03/31 03:47:23;;;;;;;18.40;13.52;;;2.60;99.90;;;;;;4973008;28;20043;-77
2022/03/31 03:49:49;;;;;;;17.65;12.13;;;2.80;99.90;;;;;;4974386;28;20047;-77
2022/03/31 03:52:15;;;;;;;16.85;12.80;;;2.60;99.90;;;;;;4973692;28;20074;-77
2022/03/31 03:54:41;;;;;;;20.60;15.43;;;2.60;99.90;;;;;;4973892;28;20065;-77
2022/03/31 03:57:07;;;;;;;17.63;13.73;;;2.60;99.90;;;;;;4941750;28;20442;-77
2022/03/31 03:59:33;;;;;;;20.98;15.65;;;2.50;99.90;;;;;;4973791;28;20121;-77
2022/03/31 04:01:59;;;;;;;20.73;15.30;;;2.60;99.90;;;;;;4957462;28;20045;-77
2022/03/31 04:04:31;;;;;;;18.88;15.00;;;2.50;99.90;;;;;;4973269;28;20047;-77
2022/03/31 04:06:57;;;;;;;20.33;16.05;;;2.50;99.90;;;;;;4958172;28;20480;-77
2022/03/31 04:09:23;;;;;;;18.30;14.45;;;2.50;99.90;;;;;;4957540;28;20085;-77
2022/03/31 04:11:49;;;;;;;15.45;12.65;;;2.60;99.90;;;;;;4957547;28;20101;-77
2022/03/31 04:14:15;;;;;;;17.63;13.40;;;2.60;99.90;;;;;;4957302;28;20039;-77
2022/03/31 04:16:41;;;;;;;19.92;15.55;;;2.60;99.90;;;;;;4973608;28;20041;-77
2022/03/31 04:19:08;;;;;;;21.88;16.70;;;2.60;99.90;;;;;;4956311;28;20070;-77
2022/03/31 04:21:35;;;;;;;22.30;16.90;;;2.50;99.90;;;;;;4941629;28;20042;-77
2022/03/31 04:24:02;;;;;;;19.10;14.93;;;2.50;99.90;;;;;;4957360;28;20089;-77
2022/03/31 04:26:28;;;;;;;21.15;15.48;;;2.50;99.90;;;;;;4973773;28;20050;-77
2022/03/31 04:28:53;;;;;;;23.05;16.77;;;2.50;99.90;;;;;;4973100;28;20050;-77
2022/03/31 04:31:19;;;;;;;29.35;19.13;;;2.60;99.90;;;;;;4973123;28;20047;-77
2022/03/31 04:33:45;;;;;;;22.25;16.88;;;2.60;99.90;;;;;;4972466;28;20042;-77
2022/03/31 04:36:10;;;;;;;20.40;16.25;;;2.60;99.90;;;;;;4956993;28;20055;-77
2022/03/31 04:38:36;;;;;;;19.80;15.18;;;2.80;99.90;;;;;;4957319;28;20042;-77
2022/03/31 04:41:03;;;;;;;23.10;17.90;;;2.60;99.90;;;;;;4974489;28;20042;-78
2022/03/31 04:43:29;;;;;;;19.70;15.70;;;2.60;99.90;;;;;;4976263;28;20102;-78
2022/03/31 04:45:55;;;;;;;16.85;14.10;;;2.60;99.90;;;;;;4976335;28;20467;-78
2022/03/31 04:48:21;;;;;;;20.52;16.38;;;2.80;99.90;;;;;;4975775;28;20046;-78
2022/03/31 04:50:46;;;;;;;21.75;16.60;;;3.00;99.90;;;;;;4976746;28;20489;-77
2022/03/31 04:53:14;;;;;;;19.45;14.73;;;2.70;99.90;;;;;;4960170;28;20052;-77
2022/03/31 04:55:40;;;;;;;19.83;16.17;;;2.60;99.90;;;;;;4976592;28;20038;-77
2022/03/31 04:58:06;;;;;;;17.75;14.38;;;2.60;99.90;;;;;;4976404;28;20486;-77
2022/03/31 05:00:32;;;;;;;21.40;16.75;;;2.60;99.90;;;;;;4975782;28;20073;-76
2022/03/31 05:02:59;;;;;;;19.05;14.98;;;2.60;99.90;;;;;;4991409;28;20042;-76
2022/03/31 05:05:25;;;;;;;21.70;16.83;;;2.60;99.90;;;;;;4976717;28;20374;-76
2022/03/31 05:07:51;;;;;;;17.25;13.90;;;2.60;99.90;;;;;;4976218;28;20532;-76
2022/03/31 05:10:17;;;;;;;17.88;14.60;;;2.70;99.90;;;;;;4991745;28;20125;-76
2022/03/31 05:12:43;;;;;;;17.05;13.82;;;2.60;99.90;;;;;;4991015;28;20623;-76
2022/03/31 05:15:09;;;;;;;20.55;16.38;;;2.60;99.90;;;;;;4991180;28;20093;-76
2022/03/31 05:17:36;;;;;;;20.02;16.77;;;2.50;99.90;;;;;;4974213;28;20070;-76
2022/03/31 05:20:21;;;;;;;19.17;15.52;;;2.50;99.90;;;;;;4975007;28;20049;-76
2022/03/31 05:22:47;;;;;;;22.35;17.75;;;2.50;99.90;;;;;;4989038;28;20043;-76
2022/03/31 05:25:13;;;;;;;20.25;15.68;;;2.50;99.90;;;;;;4974435;28;20049;-76
2022/03/31 05:27:43;;;;;;;18.38;14.80;;;2.50;99.90;;;;;;4974878;28;20399;-76
2022/03/31 05:30:13;;;;;;;21.90;16.63;;;2.50;99.90;;;;;;4992761;28;20050;-76
2022/03/31 05:32:39;;;;;;;20.15;16.30;;;2.50;99.90;;;;;;4975871;28;20042;-76
2022/03/31 05:35:07;;;;;;;26.60;21.58;;;2.50;99.90;;;;;;4990584;28;20095;-76
2022/03/31 05:37:33;;;;;;;29.00;22.20;;;2.50;99.90;;;;;;4991498;28;20058;-76
2022/03/31 05:40:03;;;;;;;24.10;19.35;;;2.50;99.90;;;;;;4944573;28;20043;-76
2022/03/31 05:42:28;;;;;;;30.52;22.88;;;2.40;99.90;;;;;;4976393;28;20054;-76
2022/03/31 05:44:54;;;;;;;25.50;20.75;;;2.40;99.90;;;;;;4982955;28;20042;-76
2022/03/31 05:47:20;;;;;;;40.13;28.60;;;2.40;99.90;;;;;;4978471;28;20042;-76
2022/03/31 05:49:46;;;;;;;23.63;19.05;;;2.50;99.90;;;;;;4995713;28;20494;-76
2022/03/31 05:52:11;;;;;;;24.92;20.85;;;2.60;99.90;;;;;;4963094;28;20156;-76
2022/03/31 05:54:37;;;;;;;27.60;22.90;;;2.50;99.90;;;;;;4995588;28;20053;-76
2022/03/31 05:57:03;;;;;;;25.33;19.85;;;2.50;99.90;;;;;;4995282;28;20056;-76
2022/03/31 05:59:29;;;;;;;29.23;23.02;;;2.40;99.90;;;;;;4995662;28;20125;-76
2022/03/31 06:01:55;;;;;;;23.67;18.13;;;2.60;99.90;;;;;;4970696;28;20034;-76
2022/03/31 06:04:21;;;;;;;26.17;20.50;;;2.30;99.90;;;;;;4977892;28;20502;-76
2022/03/31 06:06:48;;;;;;;26.80;21.40;;;2.30;99.90;;;;;;4994033;28;20101;-76
2022/03/31 06:09:14;;;;;;;45.15;36.70;;;2.70;99.90;;;;;;4994096;28;20042;-76
2022/03/31 06:11:41;;;;;;;27.63;21.42;;;2.40;99.90;;;;;;4961963;28;20038;-76
2022/03/31 06:14:06;;;;;;;27.98;21.90;;;2.40;99.90;;;;;;4978949;28;20061;-76
2022/03/31 06:16:32;;;;;;;26.45;21.40;;;2.50;99.90;;;;;;4995233;28;20121;-76
2022/03/31 06:18:58;;;;;;;27.95;22.52;;;2.60;99.90;;;;;;4978123;28;20096;-76
2022/03/31 06:21:24;;;;;;;28.10;21.63;;;2.50;99.90;;;;;;4995154;28;20035;-76
2022/03/31 06:23:49;;;;;;;28.60;22.48;;;2.40;99.90;;;;;;4994756;28;20509;-76
2022/03/31 06:26:15;;;;;;;26.25;19.73;;;2.40;99.90;;;;;;4995365;28;20042;-76
2022/03/31 06:28:41;;;;;;;28.67;22.20;;;2.40;99.90;;;;;;4994963;28;20558;-76
2022/03/31 06:31:07;;;;;;;33.28;25.83;;;2.40;99.90;;;;;;4995190;28;20050;-76
2022/03/31 06:33:33;;;;;;;31.17;24.17;;;2.50;99.90;;;;;;4993871;28;20042;-76
2022/03/31 06:35:58;;;;;;;27.38;21.38;;;2.50;99.90;;;;;;4994784;28;20045;-76
2022/03/31 06:38:24;;;;;;;31.65;24.65;;;2.40;99.90;;;;;;4993924;28;20078;-76
2022/03/31 06:41:10;;;;;;;33.00;26.10;;;2.40;99.90;;;;;;4991078;28;20047;-75
2022/03/31 06:43:41;;;;;;;33.35;24.73;;;2.40;99.90;;;;;;4976940;28;20470;-75
2022/03/31 06:46:07;;;;;;;29.20;22.35;;;2.50;99.90;;;;;;4993796;28;20042;-75
2022/03/31 06:48:35;;;;;;;34.72;26.55;;;2.40;99.90;;;;;;4993503;28;20159;-76
2022/03/31 06:51:03;;;;;;;30.45;23.95;;;2.40;99.90;;;;;;4978282;28;20046;-76
2022/03/31 06:53:29;;;;;;;29.38;23.58;;;2.40;99.90;;;;;;4978101;28;20089;-76
2022/03/31 06:55:54;;;;;;;28.35;21.85;;;2.40;99.90;;;;;;4994749;28;20073;-76
2022/03/31 06:58:25;;;;;;;32.30;24.80;;;2.40;99.90;;;;;;4994148;28;20038;-76
2022/03/31 07:00:53;;;;;;;38.45;28.20;;;2.50;99.90;;;;;;4978304;28;20045;-76
2022/03/31 07:03:19;;;;;;;37.15;27.35;;;2.40;99.90;;;;;;4993564;28;20494;-76
2022/03/31 07:05:45;;;;;;;34.35;22.60;;;2.50;99.90;;;;;;4994467;28;20084;-76
2022/03/31 07:08:10;;;;;;;41.78;30.50;;;2.50;99.90;;;;;;4994302;28;20042;-76
2022/03/31 07:10:36;;;;;;;37.50;27.98;;;2.50;99.90;;;;;;4994215;28;20069;-76
2022/03/31 07:13:02;;;;;;;39.85;29.83;;;2.60;99.90;;;;;;4977984;28;20125;-76
2022/03/31 07:15:28;;;;;;;37.63;29.08;;;2.50;99.90;;;;;;4994130;28;20093;-76
2022/03/31 07:17:55;;;;;;;41.65;30.38;;;2.50;99.90;;;;;;4993014;28;20129;-76
2022/03/31 07:20:24;;;;;;;39.60;29.00;;;2.50;99.90;;;;;;4994156;28;20078;-76
2022/03/31 07:22:50;;;;;;;43.60;30.95;;;2.60;99.90;;;;;;4974865;28;20129;-76
2022/03/31 07:25:17;;;;;;;36.80;27.70;;;2.60;99.90;;;;;;4974554;28;20093;-76
2022/03/31 07:27:44;;;;;;;35.65;26.85;;;2.70;99.90;;;;;;4960439;28;20129;-76
2022/03/31 07:30:12;;;;;;;32.90;24.83;;;2.60;99.90;;;;;;4993760;28;20042;-76
2022/03/31 07:32:51;;;;;;;38.17;28.90;;;2.70;99.90;;;;;;4992679;28;20046;-76
2022/03/31 07:35:17;;;;;;;41.88;29.80;;;2.70;99.90;;;;;;4993740;28;20038;-76
2022/03/31 07:37:44;;;;;;;31.23;22.85;;;2.60;99.90;;;;;;4977273;28;20448;-76
2022/03/31 07:40:10;;;;;;;37.67;27.85;;;2.60;99.90;;;;;;4993633;28;20054;-76
2022/03/31 07:42:36;;;;;;;33.97;25.25;;;2.60;99.90;;;;;;4993383;28;20066;-76
2022/03/31 07:45:02;;;;;;;38.72;30.13;;;2.60;99.90;;;;;;4984679;28;20073;-76
2022/03/31 07:47:28;;;;;;;46.45;33.55;;;2.70;99.90;;;;;;4972999;28;20043;-76
2022/03/31 07:49:53;;;;;;;32.97;25.95;;;2.70;99.90;;;;;;4941921;28;20146;-76
2022/03/31 07:52:21;;;;;;;45.53;33.17;;;2.80;99.90;;;;;;4973699;28;20046;-76
2022/03/31 07:54:48;;;;;;;40.97;29.67;;;2.80;99.90;;;;;;4973842;28;20406;-76
2022/03/31 07:57:14;;;;;;;43.35;32.17;;;2.90;99.90;;;;;;4973679;28;20045;-76
2022/03/31 07:59:39;;;;;;;40.30;30.95;;;2.90;99.90;;;;;;4973789;28;20042;-76
2022/03/31 08:02:06;;;;;;;39.45;29.95;;;2.90;99.90;;;;;;4970143;28;20120;-77
2022/03/31 08:04:32;;;;;;;35.42;26.33;;;3.00;99.90;;;;;;4992784;28;20078;-76
2022/03/31 08:06:59;;;;;;;39.17;30.80;;;3.10;99.90;;;;;;4976654;28;20078;-76
2022/03/31 08:09:25;;;;;;;39.65;30.33;;;3.00;99.90;;;;;;4971642;28;20047;-76
2022/03/31 08:11:51;;;;;;;32.85;25.85;;;3.00;99.90;;;;;;4935016;28;20044;-76
2022/03/31 08:14:19;;;;;;;34.03;26.90;;;3.10;99.90;;;;;;4937607;28;20045;-76
2022/03/31 08:16:46;;;;;;;37.70;27.88;;;3.20;99.90;;;;;;4965343;28;20035;-76
2022/03/31 08:19:17;;;;;;;32.75;26.55;;;3.00;99.90;;;;;;4944704;28;20046;-76
2022/03/31 08:21:43;;;;;;;32.00;24.42;;;3.10;99.90;;;;;;4952254;28;20045;-76
2022/03/31 08:24:11;;;;;;;34.25;25.58;;;3.10;99.90;;;;;;4962996;28;20062;-76
2022/03/31 08:26:37;;;;;;;40.10;28.88;;;3.10;99.90;;;;;;4981539;28;20097;-76
2022/03/31 08:29:04;;;;;;;35.03;26.55;;;3.10;99.90;;;;;;4953136;28;20109;-76
2022/03/31 08:31:30;;;;;;;30.50;24.02;;;3.10;99.90;;;;;;4968954;28;20043;-76
2022/03/31 08:33:55;;;;;;;25.92;20.60;;;3.10;99.90;;;;;;4949378;28;20047;-76
2022/03/31 08:36:21;;;;;;;18.05;12.60;;;3.30;99.90;;;;;;4956163;28;20055;-76
2022/03/31 08:38:47;;;;;;;26.25;21.55;;;3.20;99.90;;;;;;4952044;28;20041;-76
2022/03/31 08:41:14;;;;;;;25.45;18.90;;;3.10;99.90;;;;;;4953713;28;20034;-76
2022/03/31 08:43:42;;;;;;;20.65;16.20;;;3.10;99.90;;;;;;4968215;28;20047;-76
2022/03/31 08:46:10;;;;;;;20.30;15.50;;;3.10;99.90;;;;;;4929371;28;20062;-76
2022/03/31 08:48:37;;;;;;;18.00;13.85;;;3.10;99.90;;;;;;4975035;28;20413;-76
2022/03/31 08:51:04;;;;;;;17.15;13.10;;;3.40;99.90;;;;;;4987612;28;20046;-76
2022/03/31 08:53:34;;;;;;;13.70;10.35;;;3.00;99.90;;;;;;4965781;28;20617;-76
2022/03/31 08:55:59;;;;;;;12.10;9.23;;;3.00;99.90;;;;;;4979687;28;20081;-76
2022/03/31 08:58:26;;;;;;;10.40;7.63;;;2.80;99.90;;;;;;4962065;28;20149;-76
2022/03/31 09:00:52;;;;;;;12.07;8.63;;;2.90;99.90;;;;;;4963559;28;20046;-76
2022/03/31 09:03:18;;;;;;;11.63;8.65;;;3.00;99.90;;;;;;4978483;28;20078;-75
2022/03/31 09:05:46;;;;;;;11.70;8.73;;;2.90;99.90;;;;;;4959978;28;20495;-75
2022/03/31 09:08:13;;;;;;;12.20;8.32;;;2.80;99.90;;;;;;4976817;28;20073;-76
2022/03/31 09:10:44;;;;;;;10.10;7.22;;;2.80;99.90;;;;;;4960746;28;20043;-76
2022/03/31 09:13:18;;;;;;;12.10;8.02;;;2.80;99.90;;;;;;4960629;28;20038;-76
2022/03/31 09:15:53;;;;;;;13.85;10.30;;;2.70;99.90;;;;;;4977192;28;20506;-76
2022/03/31 09:18:20;;;;;;;14.05;10.80;;;2.60;99.90;;;;;;4975852;28;20081;-76
2022/03/31 09:20:49;;;;;;;14.05;11.15;;;2.50;99.90;;;;;;4977107;28;20050;-76
2022/03/31 09:23:17;;;;;;;12.75;9.70;;;2.60;99.90;;;;;;4976884;28;20125;-76
2022/03/31 09:25:44;;;;;;;13.43;10.43;;;2.70;99.90;;;;;;4976697;28;20066;-76
2022/03/31 09:28:21;;;;;;;13.98;10.57;;;2.50;99.90;;;;;;4976327;28;20046;-76
2022/03/31 09:30:50;;;;;;;11.73;9.05;;;2.40;99.90;;;;;;4960696;28;20384;-76
2022/03/31 09:33:25;;;;;;;12.27;8.48;;;2.40;99.90;;;;;;4975433;28;20042;-76
2022/03/31 09:36:12;;;;;;;12.40;9.23;;;2.50;99.90;;;;;;4976560;28;20039;-76
2022/03/31 09:38:39;;;;;;;15.63;9.75;;;2.40;99.90;;;;;;4976128;28;20523;-76
2022/03/31 09:41:20;;;;;;;10.02;7.43;;;2.40;99.90;;;;;;4976328;28;20074;-76
2022/03/31 09:43:47;;;;;;;16.95;11.63;;;2.40;99.90;;;;;;4976124;28;20038;-76
2022/03/31 09:46:18;;;;;;;6.75;3.75;;;2.30;99.90;;;;;;4976425;28;20046;-76
2022/03/31 09:48:44;;;;;;;9.82;6.72;;;2.40;99.90;;;;;;4975220;28;20093;-76
2022/03/31 09:51:10;;;;;;;12.15;9.45;;;2.40;99.90;;;;;;4960132;28;20043;-76
2022/03/31 09:53:36;;;;;;;11.70;8.45;;;2.10;99.90;;;;;;4975943;28;20043;-76
2022/03/31 09:56:01;;;;;;;11.88;8.82;;;1.90;99.90;;;;;;4976213;28;20528;-76
2022/03/31 09:58:27;;;;;;;16.35;13.02;;;1.90;99.90;;;;;;4959792;28;20043;-76
2022/03/31 10:00:54;;;;;;;12.00;9.23;;;1.80;99.90;;;;;;4982586;28;20140;-76
2022/03/31 10:03:21;;;;;;;41.13;28.48;;;1.80;99.90;;;;;;4994406;28;20069;-76
2022/03/31 10:05:47;;;;;;;17.17;13.40;;;1.70;99.90;;;;;;4977052;28;20047;-76
2022/03/31 10:08:13;;;;;;;9.90;7.43;;;1.90;99.90;;;;;;4968502;28;20390;-76
2022/03/31 10:10:40;;;;;;;12.38;9.38;;;1.80;99.90;;;;;;4973160;28;20046;-76
2022/03/31 10:13:30;;;;;;;12.27;9.43;;;1.60;99.90;;;;;;4986284;28;20110;-76
2022/03/31 10:16:05;;;;;;;12.52;9.13;;;1.50;99.90;;;;;;4975501;28;20046;-76
2022/03/31 10:18:31;;;;;;;11.13;9.00;;;1.50;99.90;;;;;;4974738;28;20050;-76
2022/03/31 10:20:58;;;;;;;11.45;8.90;;;1.50;99.90;;;;;;4976065;28;20510;-76
2022/03/31 10:26:28;;;;;;;10.02;7.82;;;1.40;99.90;;;;;;4995118;28;20049;-76
2022/03/31 10:28:59;;;;;;;10.90;8.60;;;1.50;99.90;;;;;;4977961;28;20409;-76
2022/03/31 10:31:39;;;;;;;14.20;11.38;;;1.50;99.90;;;;;;4975752;28;20442;-76
2022/03/31 10:34:06;;;;;;;12.52;9.48;;;1.50;99.90;;;;;;4975942;28;20042;-76
2022/03/31 10:36:47;;;;;;;15.43;12.85;;;1.50;99.90;;;;;;4976699;28;20109;-76
2022/03/31 10:39:21;;;;;;;12.07;9.43;;;1.70;99.90;;;;;;5009963;28;20045;-76
2022/03/31 10:41:59;;;;;;;14.80;12.73;;;1.50;99.90;;;;;;4993861;28;20088;-76
2022/03/31 10:44:25;;;;;;;13.35;10.10;;;1.60;99.90;;;;;;4993424;28;20034;-76
2022/03/31 10:47:06;;;;;;;12.55;9.73;;;1.40;99.90;;;;;;4993561;28;20045;-76
2022/03/31 10:49:32;;;;;;;13.65;10.77;;;1.50;99.90;;;;;;4992301;28;20161;-76
2022/03/31 10:51:59;;;;;;;13.90;9.70;;;1.50;99.90;;;;;;4992752;28;20109;-76
2022/03/31 10:54:27;;;;;;;14.38;11.45;;;1.50;99.90;;;;;;4989829;28;20046;-76
2022/03/31 10:57:06;;;;;;;16.05;11.80;;;1.40;99.90;;;;;;4989882;28;20039;-76
2022/03/31 10:59:32;;;;;;;14.68;11.85;;;1.50;99.90;;;;;;4991709;28;20045;-76
2022/03/31 11:02:12;;;;;;;14.25;10.43;;;1.40;99.90;;;;;;4989436;28;20517;-76
2022/03/31 11:04:43;;;;;;;14.85;10.45;;;1.40;99.90;;;;;;5004946;28;20077;-76
2022/03/31 11:07:14;;;;;;;19.08;14.80;;;1.40;99.90;;;;;;4973437;28;20054;-79
2022/03/31 11:09:42;;;;;;;15.88;11.75;;;1.50;99.90;;;;;;4994321;28;20042;-78
2022/03/31 11:12:19;;;;;;;16.73;12.32;;;1.40;99.90;;;;;;4961191;28;20184;-78
2022/03/31 11:14:56;;;;;;;15.45;11.85;;;1.40;99.90;;;;;;4994110;28;20046;-78
2022/03/31 11:17:22;;;;;;;19.00;14.68;;;1.40;99.90;;;;;;4993460;28;20490;-78
2022/03/31 11:19:49;;;;;;;17.15;13.00;;;1.40;99.90;;;;;;4977882;28;20125;-77
2022/03/31 11:22:22;;;;;;;19.60;16.23;;;1.40;99.90;;;;;;4979988;28;20078;-77
2022/03/31 11:24:50;;;;;;;21.52;14.10;;;1.50;99.90;;;;;;4990076;28;20042;-77
2022/03/31 11:27:28;;;;;;;21.55;17.15;;;1.60;99.90;;;;;;4976181;28;20042;-78
2022/03/31 11:29:58;;;;;;;27.13;20.83;;;1.60;99.90;;;;;;4988451;28;20053;-78
2022/03/31 11:32:32;;;;;;;22.52;17.33;;;1.60;99.90;;;;;;4966537;28;20538;-78
2022/03/31 11:34:58;;;;;;;34.60;25.98;;;1.60;99.90;;;;;;4963457;28;20050;-78
2022/03/31 11:37:24;;;;;;;94.72;65.40;;;1.60;99.90;;;;;;4979303;28;20421;-78
2022/03/31 11:39:50;;;;;;;45.47;31.90;;;1.70;99.90;;;;;;4956996;28;20117;-78
2022/03/31 11:42:16;;;;;;;50.08;32.20;;;1.70;99.90;;;;;;4969883;28;20618;-77
2022/03/31 11:44:42;;;;;;;31.85;24.70;;;1.80;99.90;;;;;;4970340;28;20081;-77
2022/03/31 11:47:17;;;;;;;41.40;27.50;;;1.80;99.90;;;;;;4964595;28;20034;-77
2022/03/31 11:49:44;;;;;;;25.30;17.00;;;1.80;99.90;;;;;;4983948;28;20038;-77
2022/03/31 11:52:10;;;;;;;36.42;29.02;;;1.90;99.90;;;;;;4988011;28;20050;-78
2022/03/31 11:54:40;;;;;;;27.27;20.92;;;2.00;99.90;;;;;;4969566;28;20057;-78
2022/03/31 11:57:09;;;;;;;32.92;25.90;;;1.90;99.90;;;;;;4989077;28;20126;-78
2022/03/31 11:59:36;;;;;;;39.50;32.05;;;2.00;99.90;;;;;;4991543;28;20065;-78
2022/03/31 12:02:12;;;;;;;48.42;37.05;;;2.00;99.90;;;;;;4974379;28;20039;-78
2022/03/31 12:04:38;;;;;;;43.58;31.27;;;2.10;99.90;;;;;;4989594;28;20544;-78
2022/03/31 12:07:04;;;;;;;36.13;25.58;;;2.10;99.90;;;;;;4989125;28;20049;-77
2022/03/31 12:09:30;;;;;;;45.80;33.65;;;2.20;99.90;;;;;;4975733;28;20040;-77
2022/03/31 12:11:57;;;;;;;51.33;37.38;;;2.30;99.90;;;;;;4991639;28;20050;-77
2022/03/31 12:14:28;;;;;;;53.30;37.25;;;2.30;99.90;;;;;;4991606;28;20097;-77
2022/03/31 12:16:56;;;;;;;63.42;41.45;;;2.40;99.90;;;;;;4976271;28;20190;-77
2022/03/31 12:19:23;;;;;;;46.67;30.98;;;2.50;99.90;;;;;;4989113;28;20046;-77
2022/03/31 12:21:56;;;;;;;62.63;40.42;;;2.70;99.90;;;;;;4956902;28;20054;-77
2022/03/31 12:24:21;;;;;;;65.85;43.65;;;2.80;99.90;;;;;;4973273;28;20075;-77
2022/03/31 12:26:57;;;;;;;64.60;43.15;;;2.90;99.90;;;;;;4992099;28;20540;-77
2022/03/31 12:29:25;;;;;;;74.38;45.00;;;2.90;99.90;;;;;;4987415;28;20047;-77
2022/03/31 12:32:04;;;;;;;54.88;39.53;;;3.10;99.90;;;;;;4973197;28;20125;-77
2022/03/31 12:34:31;;;;;;;68.07;44.25;;;3.20;99.90;;;;;;4988740;28;20041;-77
2022/03/31 12:36:57;;;;;;;66.18;43.80;;;3.30;99.90;;;;;;4972958;28;20521;-77
2022/03/31 12:39:23;;;;;;;61.85;43.50;;;3.40;99.90;;;;;;4970548;28;20101;-77
2022/03/31 12:41:54;;;;;;;57.55;40.28;;;3.50;99.90;;;;;;4972944;28;20437;-77
2022/03/31 12:44:22;;;;;;;52.33;38.30;;;3.60;99.90;;;;;;4987573;28;20042;-77
2022/03/31 12:46:58;;;;;;;37.30;27.83;;;3.60;99.90;;;;;;4959401;28;20043;-78
2022/03/31 12:49:37;;;;;;;42.83;31.77;;;3.60;99.90;;;;;;4987515;28;20081;-78